Time;durP1;ratioP1;P1;durP2;ratioP2;P2;SDS_P1;SDS_P2;PMS_P1;PMS_P2;Temp;Humidity;BMP_temperature;BMP_pressure;BME280_temperature;BME280_humidity;BME280_pressure;Samples;Min_cycle;Max_cycle;Signal;HPM_P1;HPM_P2
2023/05/12 00:01:16;;;;;;;;;2.50;2.50;;;;;9.49;70.38;98575.25;4880674;28;108684;-71
2023/05/12 00:03:52;;;;;;;;;5.25;4.25;;;;;9.39;70.16;98582.84;4879464;28;102025;-71
2023/05/12 00:06:41;;;;;;;;;3.00;2.00;;;;;9.36;68.92;98580.53;4885472;28;101934;-71
2023/05/12 00:09:33;;;;;;;;;6.00;4.75;;;;;9.09;72.49;98586.69;4882075;28;103340;-72
2023/05/12 00:12:15;;;;;;;;;9.00;8.00;;;;;8.99;71.68;98584.31;4884476;28;109281;-71
2023/05/12 00:14:50;;;;;;;;;10.50;6.50;;;;;9.00;72.66;98574.38;4883348;28;102533;-71
2023/05/12 00:17:17;;;;;;;;;6.00;4.25;;;;;9.01;71.37;98570.63;4886272;28;102402;-71
2023/05/12 00:19:44;;;;;;;;;8.00;8.00;;;;;8.94;71.27;98570.56;4884908;28;102046;-71
2023/05/12 00:22:11;;;;;;;;;7.00;6.50;;;;;8.92;71.64;98575.31;4884720;28;103891;-72
2023/05/12 00:24:38;;;;;;;;;5.50;5.25;;;;;8.88;72.15;98577.56;4887893;28;101836;-72
2023/05/12 00:27:06;;;;;;;;;5.00;5.00;;;;;8.88;72.26;98584.81;4886451;28;108256;-71
2023/05/12 00:29:33;;;;;;;;;6.50;5.00;;;;;8.95;71.29;98577.63;4888663;28;102106;-70
2023/05/12 00:32:00;;;;;;;;;5.75;4.00;;;;;8.95;72.56;98573.09;4886292;28;104000;-71
2023/05/12 00:34:27;;;;;;;;;5.00;3.00;;;;;8.94;73.41;98578.66;4884726;28;102216;-71
2023/05/12 00:36:54;;;;;;;;;3.00;2.00;;;;;8.90;72.35;98570.13;4882018;28;102595;-71
2023/05/12 00:39:21;;;;;;;;;1.25;1.25;;;;;8.63;73.07;98541.19;4883291;28;101968;-72
2023/05/12 00:41:55;;;;;;;;;2.25;2.00;;;;;8.84;73.67;98575.44;4890206;28;108853;-72
2023/05/12 00:44:22;;;;;;;;;2.00;1.25;;;;;8.74;72.29;98564.09;4876709;28;102737;-71
2023/05/12 00:46:50;;;;;;;;;2.50;2.00;;;;;8.58;74.07;98580.53;4886936;28;102312;-71
2023/05/12 00:49:18;;;;;;;;;7.75;5.00;;;;;8.26;75.07;98565.56;4879589;28;102216;-71
2023/05/12 00:51:45;;;;;;;;;4.00;4.00;;;;;8.32;75.73;98575.63;4889230;28;104154;-71
2023/05/12 00:54:12;;;;;;;;;3.00;3.00;;;;;8.29;76.65;98581.34;4879458;28;102112;-71
2023/05/12 00:56:39;;;;;;;;;4.00;3.00;;;;;8.20;77.08;98582.47;4882585;28;102322;-71
2023/05/12 00:59:07;;;;;;;;;3.50;3.00;;;;;8.20;76.87;98583.31;4883224;28;104008;-71
2023/05/12 01:01:35;;;;;;;;;2.75;2.75;;;;;8.24;76.01;98583.78;4883442;28;104125;-72
2023/05/12 01:04:02;;;;;;;;;1.50;1.50;;;;;8.27;74.86;98588.78;4880447;28;102366;-72
2023/05/12 01:06:59;;;;;;;;;2.00;1.25;;;;;8.29;73.07;98582.22;4881522;28;102317;-72
2023/05/12 01:09:45;;;;;;;;;3.00;2.75;;;;;8.28;73.12;98585.09;4882759;28;102615;-72
2023/05/12 01:12:28;;;;;;;;;2.75;2.00;;;;;8.21;74.02;98576.06;4886507;28;107831;-71
2023/05/12 01:15:08;;;;;;;;;2.00;1.50;;;;;8.18;74.02;98579.13;4881864;28;102257;-71
2023/05/12 01:18:19;;;;;;;;;7.75;6.75;;;;;7.99;76.39;98586.75;4878628;28;102512;-72
2023/05/12 01:20:55;;;;;;;;;5.00;4.50;;;;;7.93;77.29;98592.03;4878954;28;102545;-71
2023/05/12 01:23:30;;;;;;;;;4.75;3.50;;;;;7.87;78.19;98588.25;4880204;28;106597;-72
2023/05/12 01:26:15;;;;;;;;;4.25;4.00;;;;;7.69;79.55;98589.59;4882160;28;102354;-70
2023/05/12 01:28:44;;;;;;;;;7.50;7.00;;;;;7.59;80.79;98589.84;4879608;28;102333;-71
2023/05/12 01:31:12;;;;;;;;;7.00;6.50;;;;;7.60;80.11;98586.16;4883280;28;102031;-73
2023/05/12 01:33:41;;;;;;;;;8.00;7.00;;;;;7.62;79.23;98589.47;4883643;28;103991;-72
2023/05/12 01:36:08;;;;;;;;;7.25;6.00;;;;;7.68;77.18;98594.16;4876002;28;102039;-72
2023/05/12 01:38:35;;;;;;;;;7.75;5.25;;;;;7.75;77.02;98592.38;4881633;28;102214;-71
2023/05/12 01:41:02;;;;;;;;;3.75;3.00;;;;;7.77;78.82;98586.81;4884910;28;102565;-72
2023/05/12 01:43:29;;;;;;;;;3.25;3.25;;;;;7.82;77.46;98590.63;4885259;28;103995;-72
2023/05/12 01:45:56;;;;;;;;;3.50;2.50;;;;;7.81;78.65;98588.97;4875009;28;102263;-72
2023/05/12 01:48:23;;;;;;;;;4.00;3.50;;;;;7.81;79.62;98594.34;4878720;28;102274;-72
2023/05/12 01:50:50;;;;;;;;;4.00;2.00;;;;;7.83;78.87;98591.47;4887659;28;102519;-71
2023/05/12 01:53:17;;;;;;;;;3.25;3.00;;;;;7.83;77.20;98597.69;4882070;28;103985;-72
2023/05/12 01:55:44;;;;;;;;;2.00;1.00;;;;;7.82;77.45;98595.19;4884430;28;102660;-72
2023/05/12 01:58:11;;;;;;;;;3.00;3.00;;;;;7.80;77.27;98591.81;4876738;28;101997;-71
2023/05/12 02:00:38;;;;;;;;;3.25;3.00;;;;;7.78;78.18;98588.50;4884555;28;102082;-71
2023/05/12 02:03:05;;;;;;;;;2.50;1.25;;;;;7.77;78.05;98592.22;4887823;28;103960;-69
2023/05/12 02:05:32;;;;;;;;;1.75;1.00;;;;;7.61;78.70;98569.81;4889106;28;102041;-72
2023/05/12 02:07:59;;;;;;;;;2.00;1.00;;;;;7.70;79.22;98586.72;4881222;28;101977;-72
2023/05/12 02:10:26;;;;;;;;;4.00;3.25;;;;;7.69;77.95;98581.53;4886460;28;102517;-72
2023/05/12 02:12:53;;;;;;;;;3.00;2.75;;;;;7.66;79.03;98590.78;4885595;28;103017;-71
2023/05/12 02:15:20;;;;;;;;;4.00;3.25;;;;;7.60;79.64;98588.84;4884550;28;102282;-71
2023/05/12 02:17:49;;;;;;;;;5.50;5.00;;;;;7.53;80.05;98590.56;4887441;28;102611;-71
2023/05/12 02:20:16;;;;;;;;;4.75;3.50;;;;;7.52;79.95;98588.94;4879722;28;101871;-71
2023/05/12 02:22:43;;;;;;;;;3.00;2.00;;;;;7.55;78.81;98599.31;4885214;28;104078;-71
2023/05/12 02:25:10;;;;;;;;;3.00;3.00;;;;;7.31;79.10;98564.53;4885723;28;101820;-71
2023/05/12 02:27:37;;;;;;;;;3.50;3.00;;;;;7.44;79.73;98589.81;4884441;28;102047;-72
2023/05/12 02:30:04;;;;;;;;;2.25;2.25;;;;;7.36;81.80;98594.44;4880178;28;102718;-72
2023/05/12 02:32:32;;;;;;;;;6.50;3.00;;;;;7.32;82.02;98585.88;4882945;28;103942;-72
2023/05/12 02:34:59;;;;;;;;;3.00;3.00;;;;;7.35;81.21;98590.91;4876834;28;102583;-70
2023/05/12 02:37:26;;;;;;;;;3.25;2.25;;;;;7.38;80.88;98587.03;4875322;28;102765;-71
2023/05/12 02:39:55;;;;;;;;;1.75;1.75;;;;;7.38;79.92;98587.03;4875893;28;102092;-70
2023/05/12 02:42:22;;;;;;;;;4.00;3.00;;;;;7.36;81.26;98589.06;4852857;28;103800;-71
2023/05/12 02:44:49;;;;;;;;;3.00;2.00;;;;;7.31;80.40;98594.13;4887065;28;102298;-72
2023/05/12 02:47:16;;;;;;;;;4.25;3.00;;;;;7.28;80.01;98602.56;4887175;28;102083;-71
2023/05/12 02:49:43;;;;;;;;;3.75;3.25;;;;;7.26;79.82;98593.84;4877024;28;102822;-72
2023/05/12 02:52:10;;;;;;;;;5.25;5.25;;;;;7.25;79.66;98593.00;4881543;28;104020;-72
2023/05/12 02:54:37;;;;;;;;;5.00;3.00;;;;;7.21;81.03;98597.06;4879912;28;101984;-71
2023/05/12 02:57:05;;;;;;;;;5.00;4.00;;;;;7.23;81.76;98594.19;4880807;28;104053;-71
2023/05/12 02:59:32;;;;;;;;;3.00;3.00;;;;;7.20;81.09;98595.41;4880920;28;102418;-70
2023/05/12 03:01:59;;;;;;;;;5.00;3.00;;;;;7.20;80.10;98595.41;4879186;28;104062;-71
2023/05/12 03:04:26;;;;;;;;;3.50;3.00;;;;;7.17;79.40;98579.63;4877035;28;104570;-72
2023/05/12 03:06:53;;;;;;;;;2.00;1.75;;;;;7.26;80.41;98599.22;4880529;28;103029;-73
2023/05/12 03:09:20;;;;;;;;;2.00;2.00;;;;;7.25;79.58;98602.94;4882500;28;102489;-71
2023/05/12 03:11:47;;;;;;;;;1.25;1.00;;;;;7.21;80.91;98594.38;4879197;28;104146;-71
2023/05/12 03:14:14;;;;;;;;;1.50;1.50;;;;;7.21;80.96;98597.06;4886527;28;102077;-73
2023/05/12 03:16:41;;;;;;;;;2.25;2.00;;;;;7.24;80.82;98591.34;4880289;28;102021;-71
2023/05/12 03:19:08;;;;;;;;;1.50;1.50;;;;;7.23;80.73;98589.66;4880258;28;102125;-72
2023/05/12 03:21:36;;;;;;;;;1.25;1.00;;;;;7.25;81.35;98592.19;4874238;28;103950;-72
2023/05/12 03:24:03;;;;;;;;;2.00;1.00;;;;;7.27;80.69;98596.34;4885052;28;102496;-71
2023/05/12 03:26:30;;;;;;;;;2.25;2.00;;;;;7.32;81.74;98593.13;4883365;28;101971;-71
2023/05/12 03:28:57;;;;;;;;;1.75;1.00;;;;;7.35;80.92;98590.06;4879606;28;102670;-72
2023/05/12 03:31:24;;;;;;;;;0.50;0.25;;;;;7.33;80.88;98601.03;4882113;28;103994;-70
2023/05/12 03:33:51;;;;;;;;;1.75;1.75;;;;;7.25;81.10;98582.22;4879991;28;102097;-70
2023/05/12 03:36:18;;;;;;;;;1.50;1.50;;;;;7.37;81.14;98601.50;4882905;28;102269;-72
2023/05/12 03:38:45;;;;;;;;;2.50;2.50;;;;;7.41;80.92;98594.72;4884387;28;102284;-72
2023/05/12 03:41:12;;;;;;;;;3.25;2.25;;;;;7.43;79.81;98600.78;4867385;28;108410;-72
2023/05/12 03:43:39;;;;;;;;;1.00;1.00;;;;;7.43;81.37;98593.50;4881429;28;101964;-72
2023/05/12 03:46:06;;;;;;;;;2.00;2.00;;;;;7.29;80.57;98561.22;4884213;28;102101;-71
2023/05/12 03:48:33;;;;;;;;;2.00;2.00;;;;;7.52;81.29;98597.00;4885331;28;102059;-72
2023/05/12 03:51:00;;;;;;;;;2.00;2.00;;;;;7.46;81.87;98593.16;4885732;28;103322;-72
2023/05/12 03:53:27;;;;;;;;;3.00;2.00;;;;;7.51;82.50;98598.00;4877968;28;102734;-72
2023/05/12 03:55:54;;;;;;;;;3.75;3.75;;;;;7.51;81.43;98603.38;4884201;28;102000;-72
2023/05/12 03:58:22;;;;;;;;;4.00;2.75;;;;;7.60;80.42;98599.59;4878834;28;102414;-72
2023/05/12 04:00:49;;;;;;;;;2.75;2.75;;;;;7.63;82.88;98608.16;4880542;28;104041;-72
2023/05/12 04:03:16;;;;;;;;;3.00;2.25;;;;;7.68;81.02;98604.06;4883185;28;101950;-73
2023/05/12 04:05:44;;;;;;;;;2.00;2.00;;;;;7.79;80.29;98599.06;4880453;28;102119;-71
2023/05/12 04:08:11;;;;;;;;;2.75;2.00;;;;;7.85;79.39;98592.97;4882680;28;102564;-71
2023/05/12 04:10:41;;;;;;;;;3.00;3.00;;;;;7.93;79.42;98594.72;4885359;28;104141;-72
2023/05/12 04:13:08;;;;;;;;;3.00;3.00;;;;;8.03;79.02;98598.81;4882505;28;102666;-71
2023/05/12 04:15:35;;;;;;;;;2.00;2.00;;;;;8.11;80.75;98602.44;4879275;28;102685;-70
2023/05/12 04:18:02;;;;;;;;;9.00;8.50;;;;;8.06;77.44;98582.28;4885742;28;102160;-71
2023/05/12 04:20:29;;;;;;;;;9.00;7.75;;;;;8.26;78.16;98600.59;4881140;28;104036;-72
2023/05/12 04:22:56;;;;;;;;;8.00;7.00;;;;;8.40;77.52;98610.56;4886937;28;103862;-71
2023/05/12 04:25:23;;;;;;;;;6.00;5.00;;;;;8.56;76.43;98604.09;4878741;28;102102;-72
2023/05/12 04:27:50;;;;;;;;;4.25;4.00;;;;;8.67;77.12;98604.47;4884570;28;104682;-73
2023/05/12 04:30:17;;;;;;;;;5.25;5.25;;;;;8.80;75.26;98617.28;4882592;28;104197;-71
2023/05/12 04:32:45;;;;;;;;;7.50;7.00;;;;;8.93;74.95;98617.44;4882378;28;101985;-72
2023/05/12 04:35:12;;;;;;;;;7.50;5.75;;;;;9.11;76.34;98614.31;4877605;28;104265;-72
2023/05/12 04:37:39;;;;;;;;;5.50;5.50;;;;;9.96;71.84;98615.06;4881625;28;102097;-71
2023/05/12 04:40:07;;;;;;;;;5.00;4.00;;;;;11.03;68.17;98604.66;4885716;28;103953;-70
2023/05/12 04:42:34;;;;;;;;;6.50;6.50;;;;;12.02;64.49;98602.91;4885626;28;101958;-72
2023/05/12 04:45:01;;;;;;;;;4.00;4.00;;;;;12.57;61.76;98606.09;4879510;28;102102;-72
2023/05/12 04:47:28;;;;;;;;;8.25;7.00;;;;;12.69;61.55;98618.78;4882304;28;103233;-72
2023/05/12 04:49:55;;;;;;;;;8.00;5.75;;;;;13.54;58.86;98611.28;4872690;28;104016;-73
2023/05/12 04:52:22;;;;;;;;;7.75;5.75;;;;;14.15;57.42;98612.22;4878632;28;102218;-72
2023/05/12 04:54:50;;;;;;;;;6.75;6.50;;;;;14.38;53.36;98589.84;4870376;28;102283;-72
2023/05/12 04:57:17;;;;;;;;;8.75;8.00;;;;;14.56;54.51;98616.25;4881912;28;102548;-73
2023/05/12 04:59:44;;;;;;;;;7.75;7.50;;;;;14.57;52.72;98626.06;4882113;28;104002;-71
2023/05/12 05:02:11;;;;;;;;;7.75;6.75;;;;;15.19;53.47;98636.63;4890156;28;102388;-71
2023/05/12 05:04:38;;;;;;;;;6.25;6.00;;;;;15.44;53.90;98587.47;4889868;28;101847;-71
2023/05/12 05:07:05;;;;;;;;;9.25;8.00;;;;;16.14;50.89;98628.50;4886309;28;102031;-71
2023/05/12 05:09:32;;;;;;;;;7.00;6.33;;;;;16.52;49.15;98628.03;4887140;28;104001;-71
2023/05/12 05:12:02;;;;;;;;;6.00;6.00;;;;;16.87;46.92;98630.75;4886055;28;102127;-72
2023/05/12 05:14:29;;;;;;;;;5.67;5.67;;;;;17.10;47.49;98627.97;4880493;28;102444;-71
2023/05/12 05:16:56;;;;;;;;;9.67;8.33;;;;;17.40;46.73;98627.72;4879696;28;102906;-73
2023/05/12 05:19:23;;;;;;;;;6.00;4.67;;;;;17.03;45.64;98619.06;4881573;28;103943;-72
2023/05/12 05:22:10;;;;;;;;;8.33;7.00;;;;;17.04;49.09;98637.13;4874056;28;102487;-72
2023/05/12 05:24:37;;;;;;;;;9.33;7.67;;;;;17.79;46.61;98621.38;4884032;28;102346;-72
2023/05/12 05:27:05;;;;;;;;;8.67;7.33;;;;;18.11;46.40;98616.16;4884371;28;102353;-71
2023/05/12 05:29:31;;;;;;;;;8.00;8.00;;;;;18.59;45.08;98622.97;4879567;28;103939;-72
2023/05/12 05:31:59;;;;;;;;;7.00;6.00;;;;;18.33;43.61;98626.38;4885232;28;103475;-71
2023/05/12 05:34:26;;;;;;;;;8.00;7.33;;;;;18.78;43.04;98612.56;4890977;28;102391;-72
2023/05/12 05:36:53;;;;;;;;;8.00;7.00;;;;;18.51;44.29;98635.13;4881347;28;102194;-72
2023/05/12 05:39:21;;;;;;;;;7.00;5.67;;;;;18.99;41.37;98630.91;4882325;28;104015;-72
2023/05/12 05:41:48;;;;;;;;;3.67;3.67;;;;;19.15;44.16;98635.47;4886257;28;102343;-72
2023/05/12 05:44:15;;;;;;;;;9.00;7.67;;;;;19.29;41.59;98631.28;4885646;28;102349;-71
2023/05/12 05:46:42;;;;;;;;;9.33;8.00;;;;;19.57;42.24;98625.59;4877889;28;102070;-73
2023/05/12 05:49:09;;;;;;;;;7.33;7.33;;;;;19.68;41.41;98621.03;4881006;28;104016;-71
2023/05/12 05:51:36;;;;;;;;;6.00;6.00;;;;;19.68;40.74;98640.22;4885026;28;102064;-72
2023/05/12 05:54:03;;;;;;;;;7.33;6.67;;;;;19.62;41.18;98632.22;4886135;28;104813;-72
2023/05/12 05:56:31;;;;;;;;;5.00;5.00;;;;;19.81;42.82;98633.50;4879474;28;102378;-71
2023/05/12 05:59:01;;;;;;;;;8.67;6.67;;;;;20.23;40.80;98639.91;4878278;28;103750;-72
2023/05/12 06:01:29;;;;;;;;;4.33;4.00;;;;;19.76;42.20;98609.59;4881783;28;102423;-72
2023/05/12 06:03:56;;;;;;;;;5.67;5.67;;;;;19.57;43.03;98633.81;4892551;28;102397;-72
2023/05/12 06:06:23;;;;;;;;;8.00;7.00;;;;;19.30;43.53;98640.31;4872690;28;102854;-71
2023/05/12 06:08:50;;;;;;;;;6.00;5.33;;;;;19.48;41.61;98640.84;4876053;28;103911;-72
2023/05/12 06:11:17;;;;;;;;;5.33;5.33;;;;;19.80;41.31;98610.72;4878854;28;102003;-72
2023/05/12 06:13:44;;;;;;;;;5.00;5.00;;;;;20.23;39.39;98609.72;4888030;28;102053;-71
2023/05/12 06:16:11;;;;;;;;;5.67;4.33;;;;;20.20;39.82;98645.94;4889123;28;102421;-71
2023/05/12 06:18:38;;;;;;;;;5.33;5.33;;;;;20.44;40.20;98639.00;4875512;28;104098;-71
2023/05/12 06:21:05;;;;;;;;;7.00;7.00;;;;;20.79;40.73;98640.34;4882059;28;101943;-71
2023/05/12 06:23:32;;;;;;;;;6.00;5.00;;;;;20.57;40.86;98645.16;4880355;28;104377;-73
2023/05/12 06:26:01;;;;;;;;;6.00;6.00;;;;;20.56;39.93;98643.50;4888148;28;102379;-72
2023/05/12 06:28:28;;;;;;;;;3.33;3.33;;;;;20.74;39.11;98635.66;4885182;28;103810;-72
2023/05/12 06:30:56;;;;;;;;;4.00;4.00;;;;;20.94;38.52;98643.16;4879161;28;101938;-72
2023/05/12 06:33:23;;;;;;;;;6.00;6.00;;;;;20.56;40.57;98641.56;4867859;28;101996;-71
2023/05/12 06:35:50;;;;;;;;;5.33;5.33;;;;;20.11;40.09;98643.94;4884968;28;103143;-72
2023/05/12 06:38:17;;;;;;;;;5.00;5.00;;;;;20.24;39.93;98638.00;4888860;28;103042;-72
2023/05/12 06:40:44;;;;;;;;;6.00;6.00;;;;;19.86;41.69;98641.78;4880520;28;102420;-72
2023/05/12 06:43:11;;;;;;;;;6.67;6.00;;;;;20.29;41.47;98649.03;4882866;28;101833;-72
2023/05/12 06:45:38;;;;;;;;;6.00;6.00;;;;;20.01;41.62;98640.00;4885837;28;101964;-72
2023/05/12 06:48:05;;;;;;;;;9.00;9.00;;;;;19.74;41.64;98643.84;4885945;28;103984;-72
2023/05/12 06:50:32;;;;;;;;;5.33;5.33;;;;;20.44;39.62;98632.72;4876529;28;102062;-73
2023/05/12 06:52:59;;;;;;;;;8.67;7.00;;;;;19.94;39.63;98646.81;4879295;28;102879;-73
2023/05/12 06:55:26;;;;;;;;;6.00;6.00;;;;;20.17;40.33;98643.72;4891302;28;102356;-72
2023/05/12 06:57:54;;;;;;;;;6.33;5.33;;;;;20.18;42.17;98639.03;4882130;28;109649;-73
2023/05/12 07:00:22;;;;;;;;;9.33;7.33;;;;;20.18;41.61;98642.63;4855072;28;103438;-72
2023/05/12 07:02:49;;;;;;;;;9.00;6.00;;;;;20.56;40.80;98635.25;4877990;28;102424;-72
2023/05/12 07:05:17;;;;;;;;;5.67;4.00;;;;;20.40;37.67;98604.91;4886404;28;102077;-72
2023/05/12 07:07:44;;;;;;;;;6.00;5.00;;;;;20.42;39.99;98635.72;4886320;28;104158;-72
2023/05/12 07:10:12;;;;;;;;;6.00;6.00;;;;;20.67;38.82;98628.75;4883603;28;101987;-71
2023/05/12 07:12:39;;;;;;;;;6.00;5.00;;;;;20.66;38.72;98641.66;4877651;28;102914;-72
2023/05/12 07:15:07;;;;;;;;;3.67;3.67;;;;;20.82;39.98;98634.31;4885629;28;102668;-71
2023/05/12 07:17:34;;;;;;;;;6.00;5.00;;;;;20.59;38.86;98635.53;4887626;28;104002;-73
2023/05/12 07:20:03;;;;;;;;;5.00;5.00;;;;;20.69;39.24;98637.53;4890328;28;102339;-72
2023/05/12 07:22:31;;;;;;;;;5.33;5.00;;;;;20.43;39.27;98615.41;4883999;28;102156;-72
2023/05/12 07:24:58;;;;;;;;;5.00;5.00;;;;;20.83;37.24;98635.97;4888195;28;105262;-72
2023/05/12 07:27:25;;;;;;;;;5.00;5.00;;;;;20.22;39.85;98635.50;4863805;28;108975;-72
2023/05/12 07:29:53;;;;;;;;;5.00;5.00;;;;;20.29;39.45;98630.63;4870506;28;102957;-72
2023/05/12 07:32:20;;;;;;;;;6.67;5.00;;;;;19.82;40.09;98633.22;4880186;28;102302;-73
2023/05/12 07:34:47;;;;;;;;;7.00;6.00;;;;;19.79;40.44;98636.50;4882406;28;102260;-73
2023/05/12 07:37:14;;;;;;;;;6.67;6.67;;;;;19.75;40.73;98648.25;4885084;28;104127;-72
2023/05/12 07:39:41;;;;;;;;;5.00;5.00;;;;;20.07;39.85;98621.66;4890707;28;102199;-72
2023/05/12 07:42:08;;;;;;;;;7.33;7.33;;;;;20.22;41.38;98634.72;4882728;28;102469;-72
2023/05/12 07:44:35;;;;;;;;;7.00;6.33;;;;;19.25;41.05;98641.09;4887004;28;102116;-72
2023/05/12 07:47:02;;;;;;;;;5.00;5.00;;;;;19.65;42.60;98638.00;4885905;28;103988;-74
2023/05/12 07:49:29;;;;;;;;;4.00;4.00;;;;;20.01;41.33;98642.75;4889092;28;103555;-72
2023/05/12 07:51:56;;;;;;;;;6.67;5.00;;;;;20.11;38.99;98633.78;4889021;28;102383;-73
2023/05/12 07:54:23;;;;;;;;;5.67;5.67;;;;;19.99;40.03;98635.88;4879364;28;102087;-73
2023/05/12 07:56:50;;;;;;;;;7.00;6.00;;;;;19.94;41.24;98639.41;4884791;28;104011;-73
2023/05/12 07:59:17;;;;;;;;;5.33;4.67;;;;;19.78;39.79;98647.72;4870661;28;101844;-73
2023/05/12 08:01:44;;;;;;;;;5.00;4.00;;;;;19.59;43.14;98587.75;4888662;28;102070;-74
2023/05/12 08:04:11;;;;;;;;;8.67;7.00;;;;;19.61;41.49;98639.63;4883502;28;102190;-71
2023/05/12 08:06:38;;;;;;;;;5.00;5.00;;;;;20.03;42.09;98631.53;4887639;28;103717;-73
2023/05/12 08:09:05;;;;;;;;;5.00;5.00;;;;;20.06;40.95;98631.00;4880115;28;102853;-73
2023/05/12 08:11:32;;;;;;;;;9.00;5.33;;;;;20.10;39.66;98637.63;4881687;28;102694;-73
2023/05/12 08:14:00;;;;;;;;;7.33;6.33;;;;;19.74;41.66;98652.91;4882296;28;102079;-73
2023/05/12 08:16:27;;;;;;;;;7.00;6.67;;;;;19.76;41.12;98648.00;4871755;28;104057;-73
2023/05/12 08:18:54;;;;;;;;;6.00;5.33;;;;;19.74;41.10;98649.34;4887780;28;107589;-73
2023/05/12 08:21:21;;;;;;;;;7.00;6.00;;;;;19.82;40.39;98648.88;4884836;28;102293;-74
2023/05/12 08:23:48;;;;;;;;;4.00;4.00;;;;;20.22;41.21;98651.97;4889023;28;102433;-73
2023/05/12 08:26:15;;;;;;;;;5.33;5.00;;;;;20.23;40.61;98652.81;4884361;28;104010;-73
2023/05/12 08:28:42;;;;;;;;;5.00;5.00;;;;;20.14;39.22;98652.47;4883315;28;101835;-72
2023/05/12 08:31:09;;;;;;;;;6.00;5.00;;;;;20.26;39.87;98639.38;4888055;28;102926;-73
2023/05/12 08:33:36;;;;;;;;;6.00;5.00;;;;;20.17;41.86;98640.16;4890462;28;102158;-73
2023/05/12 08:36:04;;;;;;;;;6.00;6.00;;;;;20.13;41.51;98639.81;4879209;28;103991;-73
2023/05/12 08:38:31;;;;;;;;;4.67;4.67;;;;;19.91;40.95;98620.69;4883263;28;102275;-73
2023/05/12 08:41:21;;;;;;;;;7.00;5.00;;;;;20.31;41.33;98639.47;4887478;28;102239;-73
2023/05/12 08:43:50;;;;;;;;;7.00;6.00;;;;;20.18;42.74;98639.88;4888276;28;102364;-73
2023/05/12 08:46:18;;;;;;;;;7.00;6.00;;;;;20.16;40.51;98642.06;4883697;28;104007;-74
2023/05/12 08:48:49;;;;;;;;;6.00;5.33;;;;;20.28;40.41;98650.94;4885434;28;102638;-72
2023/05/12 08:51:18;;;;;;;;;6.00;6.00;;;;;20.44;42.33;98639.00;4883774;28;102388;-73
2023/05/12 08:53:47;;;;;;;;;6.33;5.00;;;;;20.72;40.86;98640.56;4890804;28;101999;-74
2023/05/12 08:56:18;;;;;;;;;6.00;5.67;;;;;20.77;42.15;98648.00;4880143;28;104012;-73
2023/05/12 08:58:48;;;;;;;;;5.00;4.00;;;;;20.84;42.26;98643.97;4859001;28;102101;-73
2023/05/12 09:01:16;;;;;;;;;5.00;5.00;;;;;20.71;40.24;98643.59;4882875;28;102236;-73
2023/05/12 09:03:44;;;;;;;;;5.00;5.00;;;;;20.95;41.02;98647.56;4886162;28;102504;-73
2023/05/12 09:06:12;;;;;;;;;4.00;4.00;;;;;21.14;42.05;98648.81;4860570;28;104105;-73
2023/05/12 09:08:39;;;;;;;;;7.00;6.67;;;;;21.08;40.23;98649.00;4869671;28;102192;-73
2023/05/12 09:11:10;;;;;;;;;6.33;5.00;;;;;21.10;42.42;98646.81;4886083;28;102129;-72
2023/05/12 09:13:48;;;;;;;;;5.00;5.00;;;;;21.21;38.54;98637.53;4892012;28;102602;-72
2023/05/12 09:16:19;;;;;;;;;3.67;3.67;;;;;21.13;39.47;98644.41;4879027;28;104129;-73
2023/05/12 09:18:50;;;;;;;;;6.67;6.00;;;;;21.13;39.33;98641.66;4880867;28;102019;-73
2023/05/12 09:21:18;;;;;;;;;7.67;6.33;;;;;20.94;40.02;98645.91;4887809;28;101938;-74
2023/05/12 09:23:58;;;;;;;;;7.00;6.00;;;;;20.88;39.45;98647.00;4892784;28;102333;-73
2023/05/12 09:26:26;;;;;;;;;5.33;5.00;;;;;21.13;39.43;98658.16;4878296;28;108381;-74
2023/05/12 09:29:03;;;;;;;;;8.00;7.33;;;;;21.10;39.71;98647.66;4878521;28;107465;-72
2023/05/12 09:31:30;;;;;;;;;4.33;4.00;;;;;21.15;43.08;98650.47;4879208;28;102499;-73
2023/05/12 09:33:57;;;;;;;;;6.00;5.00;;;;;21.08;36.47;98644.34;4877464;28;102395;-72
2023/05/12 09:36:25;;;;;;;;;4.00;4.00;;;;;21.03;36.65;98619.56;4884102;28;103886;-74
2023/05/12 09:38:59;;;;;;;;;5.00;4.00;;;;;20.94;38.29;98648.66;4881781;28;102460;-73
2023/05/12 09:41:26;;;;;;;;;6.67;6.00;;;;;21.00;39.37;98647.59;4878826;28;103320;-73
2023/05/12 09:43:53;;;;;;;;;5.00;5.00;;;;;20.71;37.13;98610.63;4888872;28;102099;-73
2023/05/12 09:46:21;;;;;;;;;6.00;5.00;;;;;20.69;37.44;98654.03;4886661;28;108788;-73
2023/05/12 09:48:48;;;;;;;;;2.00;2.00;;;;;20.75;34.72;98640.06;4882106;28;102016;-74
2023/05/12 09:51:17;;;;;;;;;6.00;6.00;;;;;20.65;36.26;98644.66;4868245;28;102406;-73
2023/05/12 09:53:45;;;;;;;;;5.67;5.33;;;;;20.90;37.62;98642.03;4884318;28;102226;-73
2023/05/12 09:56:13;;;;;;;;;7.67;5.67;;;;;20.90;37.42;98644.78;4888638;28;103903;-73
2023/05/12 09:58:48;;;;;;;;;2.67;2.00;;;;;21.21;38.80;98640.28;4883875;28;102358;-72
2023/05/12 10:01:17;;;;;;;;;5.00;5.00;;;;;21.21;37.64;98648.53;4884074;28;102686;-72
2023/05/12 10:03:54;;;;;;;;;6.33;6.33;;;;;20.78;36.32;98646.94;4886818;28;102591;-73
2023/05/12 10:06:31;;;;;;;;;5.67;4.33;;;;;20.50;37.20;98609.66;4888769;28;109050;-73
2023/05/12 10:09:23;;;;;;;;;4.33;4.00;;;;;20.79;36.32;98640.34;4882330;28;102290;-72
2023/05/12 10:11:51;;;;;;;;;5.67;5.00;;;;;20.96;40.12;98630.00;4882920;28;102355;-72
2023/05/12 10:14:21;;;;;;;;;4.00;4.00;;;;;20.79;38.07;98643.94;4886089;28;102042;-72
2023/05/12 10:16:48;;;;;;;;;5.67;4.67;;;;;20.42;36.79;98652.19;4889998;28;104113;-74
2023/05/12 10:19:17;;;;;;;;;3.00;3.00;;;;;20.51;36.80;98651.69;4888946;28;102536;-72
2023/05/12 10:21:45;;;;;;;;;5.00;3.33;;;;;20.63;36.02;98652.31;4867463;28;102093;-72
2023/05/12 10:24:16;;;;;;;;;4.00;4.00;;;;;20.97;38.08;98652.81;4877563;28;102083;-72
2023/05/12 10:26:43;;;;;;;;;4.00;4.00;;;;;20.87;36.33;98648.91;4887416;28;103994;-73
2023/05/12 10:29:12;;;;;;;;;4.00;4.00;;;;;21.22;36.45;98631.78;4860454;28;102293;-73
2023/05/12 10:31:39;;;;;;;;;4.67;4.00;;;;;21.30;36.15;98653.25;4875535;28;101783;-74
2023/05/12 10:34:06;;;;;;;;;5.00;4.00;;;;;20.83;36.74;98646.97;4888015;28;102485;-73
2023/05/12 10:36:46;;;;;;;;;4.00;4.00;;;;;21.19;34.53;98645.25;4881176;28;104373;-72
2023/05/12 10:39:14;;;;;;;;;6.00;5.00;;;;;21.29;34.64;98628.81;4873577;28;102174;-72
2023/05/12 10:41:41;;;;;;;;;7.00;5.67;;;;;21.05;35.38;98641.31;4891022;28;102426;-72
2023/05/12 10:44:09;;;;;;;;;6.33;6.33;;;;;20.98;35.61;98643.47;4812651;28;102248;-73
2023/05/12 10:46:36;;;;;;;;;5.00;5.00;;;;;21.29;39.86;98642.56;4879986;28;103423;-72
2023/05/12 10:49:09;;;;;;;;;6.00;4.67;;;;;20.88;37.06;98630.50;4884765;28;103635;-73
2023/05/12 10:51:44;;;;;;;;;4.67;4.67;;;;;20.24;37.02;98627.84;4885723;28;102518;-73
2023/05/12 10:54:18;;;;;;;;;6.33;5.33;;;;;19.66;38.01;98603.19;4878933;28;102076;-72
2023/05/12 10:56:46;;;;;;;;;5.00;5.00;;;;;20.25;38.94;98635.00;4883127;28;104209;-74
2023/05/12 10:59:18;;;;;;;;;6.00;5.00;;;;;20.55;39.54;98639.09;4883252;28;102492;-73
2023/05/12 11:02:17;;;;;;;;;5.00;5.00;;;;;20.93;37.85;98641.53;4889142;28;102122;-73
2023/05/12 11:04:49;;;;;;;;;6.00;5.00;;;;;20.69;36.91;98643.03;4877378;28;102421;-74
2023/05/12 11:07:31;;;;;;;;;5.00;5.00;;;;;20.86;36.78;98619.75;4884782;28;104010;-72
2023/05/12 11:10:03;;;;;;;;;6.00;5.67;;;;;20.91;36.19;98638.22;4887555;28;102450;-73
2023/05/12 11:12:36;;;;;;;;;4.67;4.33;;;;;20.70;38.21;98645.53;4888568;28;101983;-74
2023/05/12 11:15:04;;;;;;;;;5.00;5.00;;;;;20.26;37.77;98644.88;4881266;28;101966;-73
2023/05/12 11:17:39;;;;;;;;;6.33;6.33;;;;;20.29;40.01;98641.63;4879663;28;103844;-72
2023/05/12 11:20:08;;;;;;;;;4.67;4.67;;;;;20.61;35.82;98643.53;4887481;28;102583;-73
2023/05/12 11:22:36;;;;;;;;;5.67;5.33;;;;;20.56;35.03;98649.00;4886342;28;102475;-74
2023/05/12 11:25:10;;;;;;;;;4.67;4.00;;;;;20.57;36.03;98653.41;4878010;28;103417;-73
2023/05/12 11:27:41;;;;;;;;;8.00;8.00;;;;;20.34;35.62;98641.69;4881881;28;107899;-73
2023/05/12 11:30:09;;;;;;;;;6.33;6.00;;;;;20.51;38.34;98648.94;4884040;28;102035;-73
2023/05/12 11:32:36;;;;;;;;;6.00;6.00;;;;;20.72;34.87;98647.97;4888661;28;103250;-74
2023/05/12 11:35:08;;;;;;;;;4.67;4.67;;;;;20.69;35.12;98654.84;4882120;28;103528;-72
2023/05/12 11:37:38;;;;;;;;;4.67;4.67;;;;;20.68;34.12;98641.38;4880872;28;104129;-72